Impacts METAR Board
IDs:

KMCO - Orlando Intl, FL, US

Updated at: 1300 UTC 21 Aug 2019
Potential Impact None Slight Moderate High
Time 21/01Z 21/02Z 21/03Z 21/04Z 21/05Z 21/06Z 21/07Z 21/08Z 21/09Z 21/10Z 21/11Z 21/12Z 21/13Z
Temp81 80 79 79 78 78 77 77 77 77 77 79 81
Dewpt74 75 75 75 75 75 75 75 75 75 75 76 76
Altim30.10 30.11 30.12 30.12 30.10 30.09 30.08 30.07 30.08 30.08 30.09 30.10 30.12
VIS10 10 10 10 10 10 10 10 10 10 10 10 10
CIG300 250 250 250 250 250 -- -- -- -- -- -- --
CoverBKNBKNBKNBKNBKNBKNSCTSCTSCTFEWFEWFEWFEW
FltCatVFRVFRVFRVFRVFRVFRVFRVFRVFRVFRVFRVFRVFR
WX--------------------------
WDir10010012012012012000036010080100
WSpd7 5 6 6 7 4 0 0 0 4 4 4 3
WGst-- -- -- -- -- -- -- -- -- -- -- -- --
Raw hourly METARs
KMCO 210053Z 10007KT 10SM FEW230 BKN300 27/23 A3010 RMK AO2 SLP190 T02720233
KMCO 210153Z 10005KT 10SM BKN250 27/24 A3011 RMK AO2 SLP195 T02670239
KMCO 210253Z 12006KT 10SM BKN250 26/24 A3012 RMK A02 SLP199 T02610239
KMCO 210353Z 12006KT 10SM BKN250 26/24 A3012 RMK AO2 SLP199 T02610239
KMCO 210453Z 12007KT 10SM FEW100 BKN250 26/24 A3010 RMK AO2 SLP191 T02560239 403280239
KMCO 210553Z 12004KT 10SM BKN250 26/24 A3009 RMK AO2 SLP189 T02560239 10283 20256 58010
KMCO 210653Z 00000KT 10SM FEW040 SCT250 25/24 A3008 RMK AO2 SLP184 T02500239
KMCO 210753Z 00000KT 10SM SCT250 25/24 A3007 RMK AO2 SLP181 T02500239
KMCO 210853Z 00000KT 10SM FEW015 SCT250 25/24 A3008 RMK AO2 SLP183 T02500239 55006
KMCO 210953Z 36004KT 10SM FEW040 FEW250 25/24 A3008 RMK AO2 SLP185 T02500239
KMCO 211053Z 10004KT 10SM FEW025 FEW250 25/24 A3009 RMK AO2 SLP188 TCU DSNT NE-SE T02500239
KMCO 211153Z 08004KT 10SM FEW025 FEW250 26/24 A3010 RMK AO2 SLP192 TCU DSNT SE 70005 T02610244 10261 20244 53009
KMCO 211253Z 10003KT 10SM FEW025 FEW250 27/24 A3012 RMK AO2 SLP197 T02720244



Page loaded:  13:38 UTC  |   06:38 AM Pacific  |   07:38 AM Mountain  |   08:38 AM Central  |   09:38 AM Eastern

 

ADVISORIES

FORECASTS

FORECASTS

OBSERVATIONS

USER TOOLS

ABOUT US